createdAt,value
2023-04-16T00:00:02.522Z,92.002
2023-04-16T00:07:01.985Z,92.002
2023-04-16T00:14:01.900Z,92.181
2023-04-16T00:21:02.150Z,91.887
2023-04-16T00:28:02.141Z,92.46
2023-04-16T00:35:01.914Z,92.46
2023-04-16T00:42:01.697Z,93.617
2023-04-16T00:49:01.350Z,93.176
2023-04-16T00:56:01.988Z,93.056
2023-04-16T01:00:01.574Z,93.056
2023-04-16T01:07:01.611Z,93.335
2023-04-16T01:14:01.674Z,93.335
2023-04-16T01:21:01.476Z,93.552
2023-04-16T01:28:01.607Z,93.666
2023-04-16T01:35:02.444Z,93.875
2023-04-16T01:42:01.332Z,93.875
2023-04-16T01:49:02.144Z,93.347
2023-04-16T01:56:01.473Z,92.592
2023-04-16T02:00:02.027Z,92.592
2023-04-16T02:07:01.601Z,93.97
2023-04-16T02:14:01.884Z,93.163
2023-04-16T02:21:01.895Z,93.163
2023-04-16T02:28:02.247Z,93.841
2023-04-16T02:35:01.507Z,94.703
2023-04-16T02:42:01.486Z,94.617
2023-04-16T02:49:01.490Z,94.617
2023-04-16T02:56:01.381Z,93.947
2023-04-16T03:00:01.891Z,93.947
2023-04-16T03:07:01.313Z,95.748
2023-04-16T03:14:02.117Z,95.389
2023-04-16T03:21:02.295Z,96.579
2023-04-16T03:28:01.407Z,96.579
2023-04-16T03:35:02.483Z,96.268
2023-04-16T03:42:02.141Z,95.276
2023-04-16T03:49:01.412Z,95.276
2023-04-16T03:56:01.576Z,95.66
2023-04-16T04:00:02.169Z,96.435
2023-04-16T04:07:01.664Z,96.435
2023-04-16T04:14:01.656Z,95.659
2023-04-16T04:21:02.076Z,97.392
2023-04-16T04:28:01.686Z,96.922
2023-04-16T04:35:02.075Z,96.922
2023-04-16T04:42:01.817Z,96.721
2023-04-16T04:49:01.979Z,97.416
2023-04-16T04:56:10.987Z,97.416
2023-04-16T05:00:02.247Z,98.326
2023-04-16T05:07:01.821Z,98.82
2023-04-16T05:14:02.224Z,98.82
2023-04-16T05:21:02.294Z,98.407
2023-04-16T05:28:01.747Z,98.243
2023-04-16T05:35:02.604Z,98.243
2023-04-16T05:42:01.931Z,97.9
2023-04-16T05:49:02.078Z,98.399
2023-04-16T05:56:01.627Z,97.73
2023-04-16T06:00:02.204Z,97.73
2023-04-16T06:07:02.159Z,98.596
2023-04-16T06:14:01.968Z,98.596
2023-04-16T06:21:01.497Z,98.881
2023-04-16T06:28:01.766Z,98.356
2023-04-16T06:35:01.506Z,98.459
2023-04-16T06:42:02.104Z,98.459
2023-04-16T06:49:01.980Z,98.165
2023-04-16T06:56:01.303Z,99.066
2023-04-16T07:00:01.861Z,99.066
2023-04-16T07:07:02.041Z,99.034
2023-04-16T07:14:01.707Z,98.22
2023-04-16T07:21:01.730Z,98.22
2023-04-16T07:28:01.600Z,97.418
2023-04-16T07:35:02.281Z,96.351
2023-04-16T07:42:01.774Z,96.078
2023-04-16T07:49:01.415Z,96.078
2023-04-16T07:56:01.559Z,95.447
2023-04-16T08:00:02.095Z,95.447
2023-04-16T08:07:01.922Z,94.497
2023-04-16T08:14:02.090Z,94.178
2023-04-16T08:21:02.179Z,93.276
2023-04-16T08:28:01.622Z,93.276
2023-04-16T08:35:01.873Z,91.62
2023-04-16T08:42:02.261Z,90.902
2023-04-16T08:49:01.771Z,89.911
2023-04-16T08:56:02.111Z,89.911
2023-04-16T09:00:01.644Z,89.017
2023-04-16T09:07:01.622Z,89.017
2023-04-16T09:14:01.401Z,89.087
2023-04-16T09:21:02.048Z,86.715
2023-04-16T09:28:01.763Z,86.701
2023-04-16T09:35:01.913Z,86.701
2023-04-16T09:42:01.485Z,84.888
2023-04-16T09:49:02.059Z,84.688
2023-04-16T09:56:01.912Z,84.688
2023-04-16T10:00:02.514Z,83.13
2023-04-16T10:07:01.542Z,83.005
2023-04-16T10:14:02.017Z,83.005
2023-04-16T10:21:01.559Z,82
2023-04-16T10:28:01.840Z,82.188
2023-04-16T10:35:02.502Z,82.188
2023-04-16T10:42:02.063Z,82.208
2023-04-16T10:49:01.745Z,81.866
2023-04-16T10:56:01.909Z,80.252
2023-04-16T11:00:02.557Z,80.252
2023-04-16T11:07:02.227Z,80.486
2023-04-16T11:14:01.933Z,78.403
2023-04-16T11:21:02.035Z,78.403
2023-04-16T11:28:01.802Z,76.612
2023-04-16T11:35:01.579Z,77.993
2023-04-16T11:42:01.666Z,77.993
2023-04-16T11:49:02.295Z,77.526
2023-04-16T11:56:01.685Z,77.113
2023-04-16T12:00:03.979Z,77.113
2023-04-16T12:07:01.801Z,76.834
2023-04-16T12:14:01.367Z,73.371
2023-04-16T12:21:01.730Z,73.371
2023-04-16T12:28:01.822Z,71.933
2023-04-16T12:35:02.178Z,71.95
2023-04-16T12:42:02.263Z,73.045
2023-04-16T12:49:01.834Z,73.045
2023-04-16T12:56:02.268Z,70.599
2023-04-16T13:00:01.853Z,70.599
2023-04-16T13:07:01.976Z,69.766
2023-04-16T13:14:01.786Z,68.47
2023-04-16T13:21:01.672Z,68.911
2023-04-16T13:28:01.407Z,68.911
2023-04-16T13:35:01.681Z,68.69
2023-04-16T13:42:01.402Z,68.155
2023-04-16T13:49:01.631Z,69.347
2023-04-16T13:56:01.358Z,69.347
2023-04-16T14:00:01.954Z,68.432
2023-04-16T14:07:02.248Z,68.432
2023-04-16T14:14:01.779Z,68.985
2023-04-16T14:21:01.357Z,68.593
2023-04-16T14:28:01.704Z,67.864
2023-04-16T14:35:01.775Z,67.864
2023-04-16T14:42:01.540Z,67.666
2023-04-16T14:49:02.158Z,66.156
2023-04-16T14:56:01.597Z,66.156
2023-04-16T15:00:02.225Z,66.437
2023-04-16T15:07:02.076Z,66.125
2023-04-16T15:14:01.941Z,66.125
2023-04-16T15:21:01.816Z,65.431
2023-04-16T15:28:01.333Z,65.567
2023-04-16T15:35:02.023Z,65.567
2023-04-16T15:42:04.012Z,64.538
2023-04-16T15:49:01.681Z,64.828
2023-04-16T15:56:01.424Z,65.615
2023-04-16T16:07:01.918Z,65.74
2023-04-16T16:14:01.699Z,66.159
2023-04-16T16:21:02.105Z,66.159
2023-04-16T16:28:04.360Z,67.051
2023-04-16T16:35:01.502Z,67.702
2023-04-16T16:42:01.839Z,67.702
2023-04-16T16:49:01.993Z,68.15
2023-04-16T16:56:01.716Z,74.757
2023-04-16T17:00:02.396Z,74.757
2023-04-16T17:07:01.416Z,75.442
2023-04-16T17:14:02.036Z,75.125
2023-04-16T17:21:02.048Z,75.125
2023-04-16T17:28:01.339Z,76.059
2023-04-16T17:35:02.390Z,77.543
2023-04-16T17:42:02.114Z,78.553
2023-04-16T17:49:01.537Z,78.553
2023-04-16T17:56:01.407Z,79.542
2023-04-16T18:00:02.104Z,79.542
2023-04-16T18:07:01.869Z,80.166
2023-04-16T18:14:01.325Z,82.479
2023-04-16T18:21:02.110Z,82.201
2023-04-16T18:28:01.962Z,82.201
2023-04-16T18:35:02.377Z,83.683
2023-04-16T18:42:01.800Z,83.94
2023-04-16T18:49:01.835Z,83.607
2023-04-16T18:56:01.561Z,83.607
2023-04-16T19:00:02.106Z,84.669
2023-04-16T19:07:01.307Z,84.669
2023-04-16T19:14:02.019Z,84.738
2023-04-16T19:21:01.551Z,85.748
2023-04-16T19:28:01.766Z,86.421
2023-04-16T19:35:01.836Z,86.421
2023-04-16T19:42:01.779Z,85.707
2023-04-16T19:49:02.099Z,86.334
2023-04-16T19:56:01.560Z,86.334
2023-04-16T20:00:02.305Z,85.518
2023-04-16T20:07:02.145Z,86.082
2023-04-16T20:14:01.560Z,86.082
2023-04-16T20:21:02.253Z,85.264
2023-04-16T20:28:01.783Z,85.486
2023-04-16T20:35:02.216Z,85.347
2023-04-16T20:42:02.029Z,85.347
2023-04-16T20:49:01.756Z,85.088
2023-04-16T20:56:01.925Z,86.283
2023-04-16T21:00:02.592Z,86.283
2023-04-16T21:07:01.870Z,86.896
2023-04-16T21:14:01.608Z,87.285
2023-04-16T21:21:01.913Z,87.285
2023-04-16T21:28:01.857Z,88.081
2023-04-16T21:35:01.970Z,87.893
2023-04-16T21:42:02.317Z,87.893
2023-04-16T21:49:02.052Z,87.163
2023-04-16T21:56:02.223Z,87.399
2023-04-16T22:00:01.957Z,87.399
2023-04-16T22:07:01.364Z,87.472
2023-04-16T22:14:01.554Z,87.782
2023-04-16T22:21:01.847Z,87.782
2023-04-16T22:28:02.145Z,87.162
2023-04-16T22:35:01.603Z,87.664
2023-04-16T22:42:01.756Z,87.942
2023-04-16T22:49:01.891Z,87.942
2023-04-16T22:56:01.829Z,89.173
2023-04-16T23:00:02.362Z,88.945
2023-04-16T23:07:01.729Z,88.945
2023-04-16T23:14:01.619Z,88.545
2023-04-16T23:21:01.679Z,88.906
2023-04-16T23:28:01.430Z,88.906
2023-04-16T23:35:02.011Z,88.97
2023-04-16T23:42:01.441Z,90.891
2023-04-16T23:49:02.199Z,91.228
2023-04-16T23:56:01.957Z,91.228
